createdAt,value
2019-05-07T00:00:57.814Z,99.90
2019-05-07T00:02:08.229Z,99.90
2019-05-07T00:03:12.240Z,99.90
2019-05-07T00:04:14.754Z,99.90
2019-05-07T00:05:17.799Z,99.90
2019-05-07T00:06:22.919Z,99.90
2019-05-07T00:07:25.239Z,99.90
2019-05-07T00:08:28.169Z,99.90
2019-05-07T00:09:32.307Z,99.90
2019-05-07T00:10:35.467Z,99.90
2019-05-07T00:11:38.492Z,99.90
2019-05-07T00:12:43.015Z,99.90
2019-05-07T00:13:45.833Z,99.90
2019-05-07T00:15:00.600Z,99.90
2019-05-07T00:15:53.599Z,99.90
2019-05-07T00:16:56.322Z,99.90
2019-05-07T00:17:59.325Z,99.90
2019-05-07T00:19:02.130Z,99.90
2019-05-07T00:20:05.166Z,99.90
2019-05-07T00:21:07.831Z,99.90
2019-05-07T00:22:12.559Z,99.90
2019-05-07T00:23:15.678Z,99.90
2019-05-07T00:24:18.439Z,99.90
2019-05-07T00:25:22.843Z,99.90
2019-05-07T00:26:25.725Z,99.90
2019-05-07T00:27:28.587Z,99.90
2019-05-07T00:28:32.499Z,99.90
2019-05-07T00:29:35.535Z,99.90
2019-05-07T00:30:38.175Z,99.90
2019-05-07T00:31:41.934Z,99.90
2019-05-07T00:32:44.779Z,99.90
2019-05-07T00:33:47.397Z,99.90
2019-05-07T00:34:54.466Z,99.90
2019-05-07T00:36:12.405Z,99.90
2019-05-07T00:37:22.126Z,99.90
2019-05-07T00:38:27.168Z,99.90
2019-05-07T00:40:02.732Z,99.90
2019-05-07T00:41:22.830Z,99.90
2019-05-07T00:42:33.760Z,99.90
2019-05-07T00:43:38.403Z,99.90
2019-05-07T00:45:12.993Z,99.90
2019-05-07T00:46:07.416Z,99.90
2019-05-07T00:47:09.994Z,99.90
2019-05-07T00:48:12.854Z,99.90
2019-05-07T00:49:15.485Z,99.90
2019-05-07T00:50:24.167Z,99.90
2019-05-07T00:51:34.070Z,99.90
2019-05-07T00:52:36.645Z,99.90
2019-05-07T00:53:39.235Z,99.90
2019-05-07T00:54:42.338Z,99.90
2019-05-07T00:55:45.109Z,99.90
2019-05-07T00:56:48.139Z,99.90
2019-05-07T00:57:52.510Z,99.90
2019-05-07T00:58:55.520Z,99.90
2019-05-07T00:59:58.536Z,99.90
2019-05-07T01:01:02.577Z,99.90
2019-05-07T01:02:05.396Z,99.90
2019-05-07T01:03:08.142Z,99.90
2019-05-07T01:04:12.034Z,99.90
2019-05-07T01:05:14.651Z,99.90
2019-05-07T01:06:17.279Z,99.90
2019-05-07T01:07:20.210Z,99.90
2019-05-07T01:08:22.817Z,99.90
2019-05-07T01:09:25.516Z,99.90
2019-05-07T01:10:28.191Z,99.90
2019-05-07T01:11:33.300Z,99.90
2019-05-07T01:12:35.370Z,99.90
2019-05-07T01:13:37.933Z,99.90
2019-05-07T01:14:42.014Z,99.90
2019-05-07T01:15:45.041Z,99.90
2019-05-07T01:16:47.720Z,99.90
2019-05-07T01:17:52.071Z,99.90
2019-05-07T01:18:54.861Z,99.90
2019-05-07T01:19:57.822Z,99.90
2019-05-07T01:21:02.300Z,99.90
2019-05-07T01:22:05.050Z,99.90
2019-05-07T01:23:07.861Z,99.90
2019-05-07T01:24:12.312Z,99.90
2019-05-07T01:25:15.415Z,99.90
2019-05-07T01:26:18.051Z,99.90
2019-05-07T01:27:22.681Z,99.90
2019-05-07T01:28:25.277Z,99.90
2019-05-07T01:29:27.935Z,99.90
2019-05-07T01:30:32.454Z,99.90
2019-05-07T01:31:44.294Z,99.90
2019-05-07T01:33:02.633Z,99.90
2019-05-07T01:34:23.189Z,99.90
2019-05-07T01:35:45.691Z,99.90
2019-05-07T01:36:48.445Z,99.90
2019-05-07T01:37:52.451Z,99.90
2019-05-07T01:38:55.433Z,99.90
2019-05-07T01:39:59.878Z,99.90
2019-05-07T01:41:02.949Z,99.90
2019-05-07T01:42:05.825Z,99.90
2019-05-07T01:43:08.576Z,99.90
2019-05-07T01:44:12.820Z,99.90
2019-05-07T01:45:15.946Z,99.90
2019-05-07T01:46:18.682Z,99.90
2019-05-07T01:47:23.640Z,99.90
2019-05-07T01:48:26.210Z,99.90
2019-05-07T01:49:28.856Z,99.90
2019-05-07T01:50:32.245Z,99.90
2019-05-07T01:51:35.088Z,99.90
2019-05-07T01:52:37.694Z,99.90
2019-05-07T01:53:40.225Z,99.90
2019-05-07T01:54:42.856Z,99.90
2019-05-07T01:55:46.003Z,99.90
2019-05-07T01:56:48.586Z,99.90
2019-05-07T01:57:52.246Z,99.90
2019-05-07T01:58:55.102Z,99.90
2019-05-07T01:59:57.636Z,99.90
2019-05-07T02:01:02.646Z,99.90
2019-05-07T02:02:24.341Z,99.90
2019-05-07T02:03:49.119Z,99.90
2019-05-07T02:05:03.164Z,99.90
2019-05-07T02:06:13.220Z,99.90
2019-05-07T02:07:27.306Z,99.90
2019-05-07T02:08:42.298Z,99.90
2019-05-07T02:09:49.243Z,99.90
2019-05-07T02:11:02.033Z,99.90
2019-05-07T02:12:22.845Z,99.90
2019-05-07T02:13:27.079Z,99.90
2019-05-07T02:14:29.616Z,99.90
2019-05-07T02:15:32.491Z,99.90
2019-05-07T02:16:35.199Z,99.90
2019-05-07T02:17:37.847Z,99.90
2019-05-07T02:18:42.455Z,99.90
2019-05-07T02:19:45.050Z,99.90
2019-05-07T02:20:47.602Z,99.90
2019-05-07T02:21:50.148Z,99.90
2019-05-07T02:22:53.231Z,99.90
2019-05-07T02:23:56.102Z,99.90
2019-05-07T02:24:58.646Z,99.90
2019-05-07T02:26:02.429Z,99.90
2019-05-07T02:27:05.166Z,99.90
2019-05-07T02:28:07.894Z,99.90
2019-05-07T02:29:12.251Z,99.90
2019-05-07T02:30:15.227Z,99.90
2019-05-07T02:31:17.867Z,99.90
2019-05-07T02:32:23.718Z,99.90
2019-05-07T02:33:25.062Z,99.90
2019-05-07T02:34:27.700Z,99.90
2019-05-07T02:35:33.048Z,99.90
2019-05-07T02:36:35.546Z,99.90
2019-05-07T02:37:51.428Z,99.90
2019-05-07T02:39:06.305Z,99.90
2019-05-07T02:40:33.650Z,99.90
2019-05-07T02:41:35.738Z,99.90
2019-05-07T02:42:38.691Z,99.90
2019-05-07T02:43:42.996Z,99.90
2019-05-07T02:45:13.329Z,99.90
2019-05-07T02:46:31.031Z,99.90
2019-05-07T02:47:27.648Z,99.90
2019-05-07T02:48:34.125Z,99.90
2019-05-07T02:49:47.963Z,99.90
2019-05-07T02:50:58.235Z,99.90
2019-05-07T02:52:13.931Z,99.90
2019-05-07T02:53:33.788Z,99.90
2019-05-07T02:55:04.012Z,99.90
2019-05-07T02:56:07.095Z,99.90
2019-05-07T02:57:13.329Z,99.90
2019-05-07T02:58:14.323Z,99.90
2019-05-07T02:59:17.292Z,99.90
2019-05-07T03:00:19.988Z,99.90
2019-05-07T03:01:22.836Z,99.90
2019-05-07T03:02:25.774Z,99.90
2019-05-07T03:03:28.336Z,99.90
2019-05-07T03:04:33.320Z,99.90
2019-05-07T03:05:35.394Z,99.90
2019-05-07T03:06:38.218Z,99.90
2019-05-07T03:07:42.709Z,99.90
2019-05-07T03:08:45.560Z,99.90
2019-05-07T03:09:48.718Z,99.90
2019-05-07T03:10:52.699Z,99.90
2019-05-07T03:11:55.551Z,99.90
2019-05-07T03:12:58.121Z,99.90
2019-05-07T03:14:03.180Z,99.90
2019-05-07T03:15:06.509Z,99.90
2019-05-07T03:16:09.119Z,99.90
2019-05-07T03:17:13.374Z,99.90
2019-05-07T03:18:18.978Z,99.90
2019-05-07T03:19:24.287Z,99.90
2019-05-07T03:20:33.999Z,99.90
2019-05-07T03:21:54.665Z,99.90
2019-05-07T03:22:58.414Z,99.90
2019-05-07T03:24:17.907Z,99.90
2019-05-07T03:25:26.206Z,99.90
2019-05-07T03:26:34.177Z,99.90
2019-05-07T03:27:36.872Z,99.90
2019-05-07T03:28:53.942Z,99.90
2019-05-07T03:30:07.982Z,99.90
2019-05-07T03:31:17.130Z,99.90
2019-05-07T03:32:28.564Z,99.90
2019-05-07T03:33:56.106Z,99.90
2019-05-07T03:35:08.230Z,99.90
2019-05-07T03:36:16.341Z,99.90
2019-05-07T03:37:18.422Z,99.90
2019-05-07T03:38:22.859Z,99.90
2019-05-07T03:39:26.251Z,99.90
2019-05-07T03:40:32.783Z,99.90
2019-05-07T03:41:34.900Z,99.90
2019-05-07T03:42:37.550Z,99.90
2019-05-07T03:43:43.182Z,99.90
2019-05-07T03:44:53.751Z,99.90
2019-05-07T03:46:07.321Z,99.90
2019-05-07T03:47:15.508Z,99.90
2019-05-07T03:48:19.649Z,99.90
2019-05-07T03:49:29.955Z,99.90
2019-05-07T03:50:33.797Z,99.90
2019-05-07T03:51:36.868Z,99.90
2019-05-07T03:52:42.617Z,99.90
2019-05-07T03:53:45.327Z,99.90
2019-05-07T03:54:47.844Z,99.90
2019-05-07T03:55:53.353Z,99.90
2019-05-07T03:56:55.113Z,99.90
2019-05-07T03:57:57.885Z,99.90
2019-05-07T03:59:03.478Z,99.90
2019-05-07T04:00:07.080Z,99.90
2019-05-07T04:01:13.152Z,99.90
2019-05-07T04:02:14.510Z,99.90
2019-05-07T04:03:19.696Z,99.90
2019-05-07T04:04:23.048Z,99.90
2019-05-07T04:05:26.004Z,99.90
2019-05-07T04:06:28.967Z,99.90
2019-05-07T04:07:33.578Z,99.90
2019-05-07T04:08:36.235Z,99.90
2019-05-07T04:09:38.829Z,99.90
2019-05-07T04:10:44.345Z,99.90
2019-05-07T04:11:46.136Z,99.90
2019-05-07T04:12:48.807Z,99.90
2019-05-07T04:13:53.496Z,99.90
2019-05-07T04:14:55.970Z,99.90
2019-05-07T04:15:58.685Z,99.90
2019-05-07T04:17:16.612Z,99.90
2019-05-07T04:18:05.769Z,99.90
2019-05-07T04:19:08.537Z,99.90
2019-05-07T04:20:13.565Z,99.90
2019-05-07T04:21:15.864Z,99.90
2019-05-07T04:22:19.423Z,99.90
2019-05-07T04:23:23.283Z,99.90
2019-05-07T04:24:33.405Z,99.90
2019-05-07T04:25:43.485Z,99.90
2019-05-07T04:26:53.617Z,99.90
2019-05-07T04:28:14.162Z,99.90
2019-05-07T04:29:16.755Z,99.90
2019-05-07T04:30:19.266Z,99.90
2019-05-07T04:31:22.930Z,99.90
2019-05-07T04:32:33.416Z,99.90
2019-05-07T04:33:39.354Z,99.90
2019-05-07T04:34:57.313Z,99.90
2019-05-07T04:36:06.206Z,99.90
2019-05-07T04:37:08.785Z,99.90
2019-05-07T04:38:13.653Z,99.90
2019-05-07T04:39:16.230Z,99.90
2019-05-07T04:40:18.884Z,99.90
2019-05-07T04:41:23.443Z,99.90
2019-05-07T04:42:25.891Z,99.90
2019-05-07T04:43:28.511Z,99.90
2019-05-07T04:44:33.168Z,99.90
2019-05-07T04:45:35.821Z,99.90
2019-05-07T04:46:38.527Z,99.90
2019-05-07T04:47:46.284Z,99.90
2019-05-07T04:48:45.519Z,99.90
2019-05-07T04:49:48.052Z,99.90
2019-05-07T04:50:54.202Z,99.90
2019-05-07T04:52:15.146Z,99.90
2019-05-07T04:53:16.062Z,99.90
2019-05-07T04:54:18.800Z,99.90
2019-05-07T04:55:22.969Z,99.90
2019-05-07T04:56:25.996Z,99.90
2019-05-07T04:57:28.666Z,99.90
2019-05-07T04:58:43.640Z,99.90
2019-05-07T04:59:46.426Z,99.90
2019-05-07T05:00:49.216Z,99.90
2019-05-07T05:01:58.367Z,99.90
2019-05-07T05:03:14.829Z,99.90
2019-05-07T05:04:26.900Z,99.90
2019-05-07T05:05:23.575Z,99.90
2019-05-07T05:06:26.702Z,99.90
2019-05-07T05:07:33.325Z,99.90
2019-05-07T05:08:35.204Z,99.90
2019-05-07T05:09:37.815Z,99.90
2019-05-07T05:10:43.062Z,99.90
2019-05-07T05:11:44.924Z,99.90
2019-05-07T05:12:59.712Z,99.90
2019-05-07T05:14:07.530Z,99.90
2019-05-07T05:15:08.898Z,99.90
2019-05-07T05:16:24.450Z,99.90
2019-05-07T05:17:27.139Z,99.90
2019-05-07T05:18:30.074Z,99.90
2019-05-07T05:19:32.599Z,99.90
2019-05-07T05:20:47.710Z,99.90
2019-05-07T05:22:09.398Z,99.90
2019-05-07T05:23:34.613Z,99.90
2019-05-07T05:24:42.452Z,99.90
2019-05-07T05:25:45.425Z,99.90
2019-05-07T05:26:52.558Z,99.90
2019-05-07T05:27:55.450Z,99.90
2019-05-07T05:29:02.253Z,99.90
2019-05-07T05:30:05.594Z,99.90
2019-05-07T05:31:12.509Z,99.90
2019-05-07T05:32:14.917Z,99.90
2019-05-07T05:33:17.580Z,99.90
2019-05-07T05:34:22.092Z,99.90
2019-05-07T05:35:24.550Z,99.90
2019-05-07T05:36:27.202Z,99.90
2019-05-07T05:37:32.033Z,99.90
2019-05-07T05:38:34.189Z,99.90
2019-05-07T05:39:38.520Z,99.90
2019-05-07T05:40:42.768Z,99.90
2019-05-07T05:41:47.692Z,99.90
2019-05-07T05:42:59.143Z,99.90
2019-05-07T05:44:05.862Z,99.90
2019-05-07T05:45:28.663Z,99.90
2019-05-07T05:46:32.398Z,99.90
2019-05-07T05:47:34.997Z,99.90
2019-05-07T05:48:37.723Z,99.90
2019-05-07T05:49:40.355Z,99.90
2019-05-07T05:50:58.288Z,99.90
2019-05-07T05:52:24.297Z,99.90
2019-05-07T05:53:32.822Z,99.90
2019-05-07T05:54:42.704Z,99.90
2019-05-07T05:55:45.627Z,99.90
2019-05-07T05:56:52.635Z,99.90
2019-05-07T05:58:15.235Z,99.90
2019-05-07T05:59:36.985Z,99.90
2019-05-07T06:01:02.459Z,99.90
2019-05-07T06:02:39.214Z,99.90
2019-05-07T06:03:59.864Z,99.90
2019-05-07T06:05:34.490Z,99.90
2019-05-07T06:07:07.647Z,99.90
2019-05-07T06:08:04.218Z,99.90
2019-05-07T06:09:25.766Z,99.90
2019-05-07T06:10:34.788Z,99.90
2019-05-07T06:11:55.311Z,99.90
2019-05-07T06:13:13.306Z,99.90
2019-05-07T06:14:26.888Z,99.90
2019-05-07T06:15:48.915Z,99.90
2019-05-07T06:17:06.790Z,99.90
2019-05-07T06:18:32.726Z,99.90
2019-05-07T06:19:42.395Z,99.90
2019-05-07T06:20:52.663Z,99.90
2019-05-07T06:22:22.357Z,99.90
2019-05-07T06:23:42.000Z,99.90
2019-05-07T06:24:48.753Z,99.90
2019-05-07T06:25:52.296Z,99.90
2019-05-07T06:26:55.682Z,99.90
2019-05-07T06:27:58.435Z,99.90
2019-05-07T06:29:02.406Z,99.90
2019-05-07T06:30:05.765Z,99.90
2019-05-07T06:31:08.526Z,99.90
2019-05-07T06:32:12.170Z,99.90
2019-05-07T06:33:15.031Z,99.90
2019-05-07T06:34:18.020Z,99.90
2019-05-07T06:35:22.952Z,99.90
2019-05-07T06:36:26.024Z,99.90
2019-05-07T06:37:28.966Z,99.90
2019-05-07T06:38:37.219Z,99.90
2019-05-07T06:39:46.364Z,99.90
2019-05-07T06:40:56.401Z,99.90
2019-05-07T06:42:17.289Z,99.90
2019-05-07T06:43:42.382Z,99.90
2019-05-07T06:44:59.934Z,99.90
2019-05-07T06:46:03.102Z,99.90
2019-05-07T06:47:05.745Z,99.90
2019-05-07T06:48:08.440Z,99.90
2019-05-07T06:49:12.705Z,99.90
2019-05-07T06:50:16.073Z,99.90
2019-05-07T06:51:21.892Z,99.90
2019-05-07T06:52:24.591Z,99.90
2019-05-07T06:53:29.489Z,99.90
2019-05-07T06:54:32.296Z,99.90
2019-05-07T06:55:36.286Z,99.90
2019-05-07T06:56:38.928Z,99.90
2019-05-07T06:57:42.550Z,99.90
2019-05-07T06:58:57.992Z,99.90
2019-05-07T07:00:03.786Z,99.90
2019-05-07T07:01:22.919Z,99.90
2019-05-07T07:02:35.556Z,99.90
2019-05-07T07:03:59.124Z,99.90
2019-05-07T07:05:07.429Z,99.90
2019-05-07T07:06:18.759Z,99.90
2019-05-07T07:07:32.295Z,99.90
2019-05-07T07:08:35.430Z,99.90
2019-05-07T07:09:57.543Z,99.90
2019-05-07T07:11:26.732Z,99.90
2019-05-07T07:12:30.034Z,99.90
2019-05-07T07:13:32.652Z,99.90
2019-05-07T07:14:35.390Z,99.90
2019-05-07T07:15:40.022Z,99.00
2019-05-07T07:16:42.742Z,99.90
2019-05-07T07:17:45.314Z,99.60
2019-05-07T07:18:52.219Z,99.10
2019-05-07T07:19:52.550Z,99.50
2019-05-07T07:20:55.287Z,98.80
2019-05-07T07:21:57.859Z,98.90
2019-05-07T07:23:02.341Z,98.80
2019-05-07T07:24:04.983Z,98.10
2019-05-07T07:25:08.451Z,98.40
2019-05-07T07:26:12.603Z,98.50
2019-05-07T07:27:15.536Z,97.90
2019-05-07T07:28:18.080Z,98.00
2019-05-07T07:29:22.790Z,97.40
2019-05-07T07:30:44.947Z,97.70
2019-05-07T07:31:54.197Z,97.90
2019-05-07T07:32:57.817Z,98.00
2019-05-07T07:34:02.328Z,98.10
2019-05-07T07:35:07.095Z,98.20
2019-05-07T07:36:11.909Z,98.20
2019-05-07T07:37:23.861Z,97.00
2019-05-07T07:38:33.159Z,97.50
2019-05-07T07:39:35.818Z,97.90
2019-05-07T07:40:42.595Z,98.00
2019-05-07T07:41:49.567Z,98.50
2019-05-07T07:42:52.229Z,97.10
2019-05-07T07:43:54.845Z,97.90
2019-05-07T07:45:14.586Z,98.20
2019-05-07T07:46:17.246Z,98.40
2019-05-07T07:47:22.236Z,97.00
2019-05-07T07:48:26.582Z,97.30
2019-05-07T07:49:29.208Z,97.50
2019-05-07T07:50:54.284Z,97.00
2019-05-07T07:53:13.014Z,97.70
2019-05-07T07:54:23.256Z,97.50
2019-05-07T07:55:42.582Z,97.90
2019-05-07T07:57:12.483Z,97.80
2019-05-07T07:58:38.044Z,97.60
2019-05-07T08:00:02.575Z,97.80
2019-05-07T08:01:12.225Z,98.40
2019-05-07T08:02:26.257Z,96.20
2019-05-07T08:03:28.798Z,96.10
2019-05-07T08:04:32.049Z,97.90
2019-05-07T08:05:34.999Z,97.20
2019-05-07T08:06:39.091Z,96.30
2019-05-07T08:07:42.565Z,96.10
2019-05-07T08:08:45.821Z,97.60
2019-05-07T08:09:48.346Z,95.20
2019-05-07T08:10:51.992Z,96.20
2019-05-07T08:11:54.619Z,96.20
2019-05-07T08:12:57.255Z,97.90
2019-05-07T08:14:02.208Z,98.00
2019-05-07T08:15:17.314Z,95.30
2019-05-07T08:16:13.107Z,96.00
2019-05-07T08:17:15.780Z,96.10
2019-05-07T08:18:18.551Z,96.10
2019-05-07T08:19:22.754Z,97.10
2019-05-07T08:20:25.874Z,94.60
2019-05-07T08:21:28.484Z,95.50
2019-05-07T08:22:32.999Z,95.30
2019-05-07T08:24:02.788Z,93.90
2019-05-07T08:25:08.428Z,92.90
2019-05-07T08:26:14.622Z,93.70
2019-05-07T08:27:23.236Z,93.90
2019-05-07T08:28:46.328Z,93.90
2019-05-07T08:29:49.067Z,94.20
2019-05-07T08:31:12.071Z,93.00
2019-05-07T08:32:32.534Z,93.20
2019-05-07T08:33:39.714Z,94.00
2019-05-07T08:34:56.397Z,92.80
2019-05-07T08:36:14.286Z,92.50
2019-05-07T08:37:15.086Z,93.30
2019-05-07T08:38:17.765Z,93.20
2019-05-07T08:39:22.355Z,93.40
2019-05-07T08:40:24.939Z,93.70
2019-05-07T08:41:27.903Z,94.20
2019-05-07T08:42:32.039Z,93.90
2019-05-07T08:43:34.912Z,93.50
2019-05-07T08:44:44.243Z,94.30
2019-05-07T08:46:04.802Z,93.30
2019-05-07T08:47:22.836Z,93.30
2019-05-07T08:48:34.466Z,95.30
2019-05-07T08:49:40.213Z,92.60
2019-05-07T08:50:42.548Z,91.80
2019-05-07T08:51:48.393Z,91.50
2019-05-07T08:52:52.201Z,91.80
2019-05-07T08:54:06.912Z,92.20
2019-05-07T08:55:09.853Z,92.50
2019-05-07T08:56:12.581Z,93.20
2019-05-07T08:57:15.170Z,92.70
2019-05-07T08:58:17.707Z,92.00
2019-05-07T08:59:22.379Z,91.70
2019-05-07T09:00:25.176Z,93.00
2019-05-07T09:01:29.528Z,93.10
2019-05-07T09:02:35.125Z,92.50
2019-05-07T09:03:43.819Z,93.80
2019-05-07T09:04:46.349Z,93.60
2019-05-07T09:05:51.925Z,93.00
2019-05-07T09:06:54.420Z,92.20
2019-05-07T09:08:02.096Z,93.10
2019-05-07T09:09:17.901Z,91.30
2019-05-07T09:10:21.815Z,90.80
2019-05-07T09:11:25.042Z,89.50
2019-05-07T09:12:27.655Z,90.00
2019-05-07T09:13:30.285Z,89.80
2019-05-07T09:14:32.953Z,90.10
2019-05-07T09:15:35.847Z,88.50
2019-05-07T09:16:38.383Z,87.40
2019-05-07T09:17:44.360Z,86.20
2019-05-07T09:18:47.417Z,85.60
2019-05-07T09:19:54.865Z,86.30
2019-05-07T09:21:18.045Z,91.80
2019-05-07T09:22:23.010Z,90.40
2019-05-07T09:23:26.177Z,88.60
2019-05-07T09:24:29.008Z,90.10
2019-05-07T09:25:34.841Z,88.20
2019-05-07T09:26:43.465Z,87.00
2019-05-07T09:27:47.763Z,87.20
2019-05-07T09:28:57.766Z,84.50
2019-05-07T09:30:22.537Z,87.40
2019-05-07T09:31:36.229Z,85.80
2019-05-07T09:32:58.331Z,84.70
2019-05-07T09:34:02.674Z,86.70
2019-05-07T09:35:07.866Z,87.10
2019-05-07T09:36:18.248Z,85.30
2019-05-07T09:37:23.833Z,86.70
2019-05-07T09:38:26.815Z,83.40
2019-05-07T09:39:29.462Z,89.50
2019-05-07T09:40:32.160Z,85.20
2019-05-07T09:41:34.750Z,86.60
2019-05-07T09:42:37.327Z,86.50
2019-05-07T09:43:40.038Z,86.50
2019-05-07T09:44:42.823Z,84.90
2019-05-07T09:46:04.907Z,84.70
2019-05-07T09:47:07.939Z,83.20
2019-05-07T09:48:11.976Z,83.00
2019-05-07T09:49:14.758Z,83.10
2019-05-07T09:50:17.276Z,81.20
2019-05-07T09:51:19.848Z,81.50
2019-05-07T09:52:22.813Z,78.60
2019-05-07T09:53:25.806Z,78.50
2019-05-07T09:54:32.356Z,78.70
2019-05-07T09:55:35.199Z,81.60
2019-05-07T09:56:38.055Z,81.10
2019-05-07T09:57:42.416Z,81.80
2019-05-07T09:58:45.230Z,80.30
2019-05-07T09:59:47.965Z,81.30
2019-05-07T10:00:51.469Z,82.30
2019-05-07T10:01:54.259Z,80.50
2019-05-07T10:03:29.180Z,84.30
2019-05-07T10:05:24.497Z,85.40
2019-05-07T10:06:40.070Z,83.70
2019-05-07T10:07:43.140Z,81.60
2019-05-07T10:08:45.865Z,85.70
2019-05-07T10:09:48.606Z,81.60
2019-05-07T10:10:53.228Z,81.40
2019-05-07T10:12:04.180Z,80.70
2019-05-07T10:13:29.209Z,79.30
2019-05-07T10:14:33.113Z,78.00
2019-05-07T10:15:35.915Z,77.20
2019-05-07T10:16:48.367Z,82.20
2019-05-07T10:17:58.753Z,80.50
2019-05-07T10:19:01.227Z,76.30
2019-05-07T10:20:25.860Z,74.70
2019-05-07T10:21:28.515Z,79.70
2019-05-07T10:22:32.134Z,77.70
2019-05-07T10:23:34.999Z,78.20
2019-05-07T10:24:37.761Z,79.10
2019-05-07T10:25:40.345Z,78.90
2019-05-07T10:26:43.080Z,76.90
2019-05-07T10:27:45.968Z,78.80
2019-05-07T10:28:50.433Z,80.10
2019-05-07T10:29:53.142Z,81.90
2019-05-07T10:30:55.673Z,78.90
2019-05-07T10:31:58.600Z,78.80
2019-05-07T10:33:01.766Z,78.10
2019-05-07T10:34:04.603Z,76.00
2019-05-07T10:35:07.895Z,80.00
2019-05-07T10:36:12.530Z,78.50
2019-05-07T10:37:15.112Z,79.70
2019-05-07T10:38:18.093Z,81.10
2019-05-07T10:39:22.048Z,79.40
2019-05-07T10:40:24.964Z,76.90
2019-05-07T10:41:27.760Z,76.80
2019-05-07T10:42:32.286Z,78.80
2019-05-07T10:43:35.334Z,76.70
2019-05-07T10:44:44.662Z,77.50
2019-05-07T10:46:05.231Z,78.20
2019-05-07T10:47:35.181Z,77.20
2019-05-07T10:48:57.940Z,82.20
2019-05-07T10:50:31.737Z,78.60
2019-05-07T10:51:23.733Z,74.70
2019-05-07T10:52:27.465Z,81.80
2019-05-07T10:53:31.964Z,79.70
2019-05-07T10:54:34.913Z,77.90
2019-05-07T10:55:37.544Z,75.70
2019-05-07T10:56:41.881Z,76.60
2019-05-07T10:57:44.747Z,77.90
2019-05-07T10:58:47.543Z,78.50
2019-05-07T10:59:52.252Z,84.60
2019-05-07T11:00:55.267Z,81.20
2019-05-07T11:02:17.506Z,87.40
2019-05-07T11:03:21.892Z,85.20
2019-05-07T11:04:24.608Z,77.70
2019-05-07T11:05:27.250Z,76.80
2019-05-07T11:06:29.885Z,75.10
2019-05-07T11:07:37.830Z,75.40
2019-05-07T11:08:42.740Z,77.60
2019-05-07T11:09:45.481Z,78.20
2019-05-07T11:10:48.141Z,76.10
2019-05-07T11:11:51.833Z,77.50
2019-05-07T11:12:55.134Z,78.20
2019-05-07T11:14:01.935Z,75.40
2019-05-07T11:15:07.036Z,79.40
2019-05-07T11:16:11.845Z,75.50
2019-05-07T11:17:32.530Z,75.00
2019-05-07T11:18:54.700Z,76.40
2019-05-07T11:19:59.086Z,76.80
2019-05-07T11:21:03.011Z,74.80
2019-05-07T11:22:05.984Z,73.50
2019-05-07T11:23:08.961Z,74.10
2019-05-07T11:24:12.924Z,73.50
2019-05-07T11:25:15.922Z,73.30
2019-05-07T11:26:18.565Z,74.10
2019-05-07T11:27:42.216Z,72.70
2019-05-07T11:28:49.420Z,72.40
2019-05-07T11:29:52.159Z,77.90
2019-05-07T11:30:54.798Z,76.70
2019-05-07T11:32:05.735Z,79.10
2019-05-07T11:33:08.762Z,81.20
2019-05-07T11:34:13.639Z,75.40
2019-05-07T11:35:16.304Z,77.60
2019-05-07T11:36:18.999Z,77.20
2019-05-07T11:37:22.777Z,74.00
2019-05-07T11:38:25.420Z,76.00
2019-05-07T11:39:28.149Z,78.00
2019-05-07T11:40:32.087Z,80.50
2019-05-07T11:41:53.335Z,75.30
2019-05-07T11:43:22.242Z,76.90
2019-05-07T11:44:27.196Z,80.50
2019-05-07T11:45:34.926Z,75.70
2019-05-07T11:46:57.056Z,75.80
2019-05-07T11:48:01.850Z,80.80
2019-05-07T11:49:14.439Z,80.00
2019-05-07T11:50:35.016Z,76.00
2019-05-07T11:51:42.715Z,78.20
2019-05-07T11:52:51.795Z,74.40
2019-05-07T11:54:13.854Z,77.90
2019-05-07T11:55:16.494Z,75.60
2019-05-07T11:56:19.107Z,73.70
2019-05-07T11:57:22.155Z,75.50
2019-05-07T11:58:25.942Z,74.70
2019-05-07T11:59:28.614Z,73.40
2019-05-07T12:00:39.651Z,76.40
2019-05-07T12:01:47.766Z,77.20
2019-05-07T12:02:52.021Z,71.90
2019-05-07T12:03:57.668Z,77.30
2019-05-07T12:05:23.888Z,73.70
2019-05-07T12:06:26.441Z,74.50
2019-05-07T12:07:30.142Z,75.40
2019-05-07T12:08:42.523Z,74.40
2019-05-07T12:09:37.355Z,75.70
2019-05-07T12:10:39.958Z,73.70
2019-05-07T12:11:42.757Z,73.50
2019-05-07T12:12:48.466Z,74.00
2019-05-07T12:13:52.346Z,72.10
2019-05-07T12:14:56.315Z,70.70
2019-05-07T12:16:04.516Z,73.10
2019-05-07T12:17:07.207Z,72.60
2019-05-07T12:18:11.901Z,72.00
2019-05-07T12:19:16.595Z,70.80
2019-05-07T12:20:21.710Z,69.60
2019-05-07T12:21:24.438Z,70.70
2019-05-07T12:22:45.092Z,71.10
2019-05-07T12:23:47.715Z,71.20
2019-05-07T12:24:52.146Z,73.50
2019-05-07T12:25:55.021Z,75.40
2019-05-07T12:26:57.868Z,74.20
2019-05-07T12:28:02.462Z,74.60
2019-05-07T12:29:19.254Z,74.00
2019-05-07T12:30:36.925Z,74.20
2019-05-07T12:32:08.194Z,72.50
2019-05-07T12:33:20.967Z,71.10
2019-05-07T12:34:27.360Z,71.10
2019-05-07T12:35:31.196Z,73.20
2019-05-07T12:36:33.853Z,76.10
2019-05-07T12:37:36.344Z,78.20
2019-05-07T12:38:41.733Z,77.80
2019-05-07T12:39:44.347Z,75.70
2019-05-07T12:40:46.877Z,75.70
2019-05-07T12:41:49.894Z,75.50
2019-05-07T12:42:52.495Z,74.10
2019-05-07T12:43:55.187Z,76.00
2019-05-07T12:44:57.813Z,73.80
2019-05-07T12:46:02.718Z,73.60
2019-05-07T12:47:05.437Z,74.00
2019-05-07T12:48:07.997Z,75.50
2019-05-07T12:49:11.960Z,75.50
2019-05-07T12:50:14.764Z,79.40
2019-05-07T12:51:30.435Z,76.10
2019-05-07T12:52:31.903Z,75.10
2019-05-07T12:53:42.459Z,76.30
2019-05-07T12:55:16.541Z,75.50
2019-05-07T12:56:19.247Z,77.70
2019-05-07T12:57:21.946Z,77.10
2019-05-07T12:58:24.835Z,76.20
2019-05-07T12:59:27.768Z,76.10
2019-05-07T13:00:48.473Z,76.00
2019-05-07T13:02:36.411Z,79.10
2019-05-07T13:03:39.991Z,74.70
2019-05-07T13:04:43.260Z,76.00
2019-05-07T13:05:58.913Z,74.00
2019-05-07T13:07:12.196Z,73.60
2019-05-07T13:08:14.728Z,76.70
2019-05-07T13:09:17.363Z,77.00
2019-05-07T13:10:21.801Z,74.50
2019-05-07T13:11:24.774Z,75.30
2019-05-07T13:12:27.424Z,76.20
2019-05-07T13:13:32.019Z,77.90
2019-05-07T13:14:34.875Z,75.40
2019-05-07T13:15:37.385Z,74.90
2019-05-07T13:16:40.050Z,76.90
2019-05-07T13:17:42.535Z,75.90
2019-05-07T13:18:45.113Z,80.70
2019-05-07T13:19:47.757Z,81.60
2019-05-07T13:20:51.940Z,80.10
2019-05-07T13:21:55.007Z,79.90
2019-05-07T13:22:57.633Z,77.50
2019-05-07T13:24:02.598Z,78.50
2019-05-07T13:25:06.341Z,76.50
2019-05-07T13:26:09.081Z,80.30
2019-05-07T13:27:11.786Z,83.50
2019-05-07T13:28:14.745Z,80.90
2019-05-07T13:29:17.517Z,78.50
2019-05-07T13:30:22.198Z,78.90
2019-05-07T13:31:27.610Z,77.60
2019-05-07T13:32:32.049Z,79.70
2019-05-07T13:33:35.614Z,81.40
2019-05-07T13:34:38.612Z,77.20
2019-05-07T13:35:42.056Z,78.90
2019-05-07T13:36:51.651Z,77.60
2019-05-07T13:38:14.593Z,82.90
2019-05-07T13:39:24.905Z,86.60
2019-05-07T13:40:34.380Z,90.20
2019-05-07T13:41:56.688Z,90.90
2019-05-07T13:43:23.627Z,88.90
2019-05-07T13:44:57.971Z,90.70
2019-05-07T13:46:11.902Z,91.20
2019-05-07T13:47:34.996Z,92.10
2019-05-07T13:48:39.337Z,91.20
2019-05-07T13:49:42.804Z,94.00
2019-05-07T13:50:46.086Z,92.90
2019-05-07T13:52:03.523Z,92.80
2019-05-07T13:53:03.971Z,92.70
2019-05-07T13:54:06.603Z,91.40
2019-05-07T13:55:09.442Z,93.10
2019-05-07T13:56:12.810Z,93.80
2019-05-07T13:57:15.794Z,92.70
2019-05-07T13:58:18.518Z,92.10
2019-05-07T13:59:22.360Z,91.60
2019-05-07T14:00:32.325Z,91.60
2019-05-07T14:02:06.528Z,94.50
2019-05-07T14:03:09.188Z,93.80
2019-05-07T14:04:12.879Z,93.50
2019-05-07T14:05:15.738Z,94.60
2019-05-07T14:06:36.271Z,95.90
2019-05-07T14:07:41.703Z,94.10
2019-05-07T14:08:44.898Z,95.40
2019-05-07T14:09:47.498Z,94.60
2019-05-07T14:10:52.030Z,94.70
2019-05-07T14:11:55.057Z,94.00
2019-05-07T14:13:11.017Z,95.60
2019-05-07T14:14:02.531Z,95.20
2019-05-07T14:15:05.734Z,94.80
2019-05-07T14:16:08.820Z,93.90
2019-05-07T14:17:12.678Z,93.70
2019-05-07T14:18:15.629Z,94.70
2019-05-07T14:19:18.368Z,94.40
2019-05-07T14:20:22.197Z,95.10
2019-05-07T14:21:25.003Z,93.50
2019-05-07T14:22:27.804Z,94.00
2019-05-07T14:23:32.382Z,92.80
2019-05-07T14:24:35.138Z,92.90
2019-05-07T14:25:37.776Z,91.70